Time;durP1;ratioP1;P1;durP2;ratioP2;P2;SDS_P1;SDS_P2;PMS_P1;PMS_P2;Temp;Humidity;BMP_temperature;BMP_pressure;BME280_temperature;BME280_humidity;BME280_pressure;Samples;Min_cycle;Max_cycle;Signal;HPM_P1;HPM_P2
2021/05/06 00:33:37;;;;;;;12.85;2.17;;;;;;;6.15;93.72;99789.19;5004209;28;20453;-79
2021/05/06 00:36:03;;;;;;;10.07;1.90;;;;;;;6.23;93.77;99793.59;5001687;28;20092;-79
2021/05/06 00:38:33;;;;;;;10.85;2.00;;;;;;;6.25;93.60;99802.03;5021194;28;20084;-79
2021/05/06 00:46:48;;;;;;;9.35;1.85;;;;;;;6.38;92.57;99780.19;5018061;28;20175;-79
2021/05/06 01:05:59;;;;;;;8.70;1.73;;;;;;;6.19;93.70;99795.41;5020753;28;20060;-79
2021/05/06 01:08:29;;;;;;;16.17;2.40;;;;;;;6.09;93.25;99793.25;5015831;28;20029;-79
2021/05/06 01:11:41;;;;;;;12.13;1.90;;;;;;;6.09;93.68;99790.56;5018439;28;20025;-79
2021/05/06 01:13:47;;;;;;;8.98;1.95;;;;;;;6.08;93.83;99791.69;5009357;23;20417;-72
2021/05/06 01:16:12;;;;;;;10.52;2.05;;;;;;;6.00;93.88;99792.66;5009740;28;20033;-73
2021/05/06 01:18:38;;;;;;;12.43;1.80;;;;;;;6.15;93.68;99791.88;5019160;28;20500;-72
2021/05/06 01:21:05;;;;;;;6.55;1.90;;;;;;;6.21;92.84;99790.50;5008779;28;20034;-72
2021/05/06 01:23:33;;;;;;;10.10;1.90;;;;;;;6.06;94.42;99794.69;5010002;28;20100;-71
2021/05/06 01:26:01;;;;;;;12.55;1.85;;;;;;;6.10;93.88;99795.56;5014478;28;20703;-72
2021/05/06 01:28:31;;;;;;;5.40;1.83;;;;;;;6.15;93.28;99791.88;5009821;28;20036;-72
2021/05/06 01:36:18;;;;;;;11.90;2.00;;;;;;;6.19;92.68;99782.78;5008968;28;20114;-72
2021/05/06 01:57:35;;;;;;;7.72;1.80;;;;;;;6.13;92.72;99786.88;5025776;28;20038;-73
2021/05/06 02:00:21;;;;;;;9.15;2.33;;;;;;;6.02;93.65;99790.41;5007246;28;20475;-73
2021/05/06 02:02:51;;;;;;;11.95;1.77;;;;;;;6.00;93.23;99784.63;5014303;28;20065;-72
2021/05/06 02:05:22;;;;;;;;;;;;;;;5.95;93.74;99790.22;5016510;28;20028;-72
2021/05/06 02:07:48;;;;;;;9.57;1.48;;;;;;;5.89;93.42;99787.03;5009559;28;19957;-73
2021/05/06 02:10:22;;;;;;;11.63;2.35;;;;;;;6.11;93.15;99789.13;5019603;28;20574;-72
2021/05/06 02:12:48;;;;;;;10.63;2.00;;;;;;;6.25;92.19;99789.44;5012844;28;20033;-72
2021/05/06 02:15:26;;;;;;;7.95;1.70;;;;;;;6.00;93.17;99798.00;5010041;28;20545;-72
2021/05/06 02:17:52;;;;;;;15.23;1.90;;;;;;;5.96;93.52;99797.13;5009794;28;20050;-72
2021/05/06 02:20:18;;;;;;;12.02;2.13;;;;;;;5.88;92.83;99796.19;5006382;28;20083;-72
2021/05/06 02:22:46;;;;;;;6.82;1.75;;;;;;;5.97;92.78;99790.66;5016815;28;20030;-72
2021/05/06 02:25:12;;;;;;;10.35;2.30;;;;;;;5.86;93.04;99801.09;5013472;28;20486;-72
2021/05/06 02:27:38;;;;;;;10.82;1.77;;;;;;;5.93;92.73;99789.78;5013679;28;20387;-73
2021/05/06 02:30:04;;;;;;;4.10;1.17;;;;;;;5.93;93.63;99792.47;5003888;28;20039;-72
2021/05/06 02:32:30;;;;;;;8.15;1.92;;;;;;;6.07;92.91;99798.94;5009868;28;20091;-72
2021/05/06 02:34:56;;;;;;;11.45;1.77;;;;;;;6.01;92.84;99791.53;5010845;28;20029;-72
2021/05/06 02:37:22;;;;;;;11.00;2.08;;;;;;;5.95;92.49;99796.34;5010081;28;20117;-73
2021/05/06 02:39:47;;;;;;;10.18;1.95;;;;;;;5.73;93.62;99794.22;5008937;28;20125;-72
2021/05/06 02:42:13;;;;;;;10.63;2.05;;;;;;;5.62;93.93;99797.75;5011984;28;20036;-73
2021/05/06 02:44:40;;;;;;;10.18;2.20;;;;;;;5.77;93.57;99805.03;5017035;28;20029;-72
2021/05/06 02:47:06;;;;;;;14.32;2.47;;;;;;;5.91;92.94;99806.19;5014659;28;20046;-72
2021/05/06 02:49:32;;;;;;;11.02;2.03;;;;;;;5.67;93.68;99789.50;5010050;28;20038;-72
2021/05/06 02:52:11;;;;;;;8.80;1.88;;;;;;;5.67;93.88;99787.59;5007529;28;20070;-72
2021/05/06 02:54:43;;;;;;;8.30;1.95;;;;;;;5.66;94.02;99799.41;5012734;28;20042;-73
2021/05/06 02:57:35;;;;;;;9.15;1.92;;;;;;;5.91;92.72;99800.03;5012916;28;20501;-72
2021/05/06 03:02:50;;;;;;;12.75;2.10;;;;;;;5.71;93.79;99807.16;5015898;28;20544;-73
2021/05/06 03:05:21;;;;;;;6.10;1.67;;;;;;;5.83;92.69;99800.97;5037926;28;20497;-73
2021/05/06 03:08:34;;;;;;;13.77;2.03;;;;;;;5.89;93.62;99802.28;5021984;28;20038;-73
2021/05/06 03:13:30;;;;;;;9.15;2.15;;;;;;;5.70;92.78;99797.59;5014111;28;20036;-74
2021/05/06 03:23:50;;;;;;;8.80;2.25;;;;;;;5.72;93.19;99797.25;5018226;28;20092;-73
2021/05/06 03:26:16;;;;;;;11.70;2.20;;;;;;;5.78;93.09;99793.22;5013343;28;20044;-73
2021/05/06 03:28:53;;;;;;;8.65;1.63;;;;;;;5.69;93.06;99803.28;5007820;28;20048;-73
2021/05/06 03:42:11;;;;;;;9.18;1.65;;;;;;;5.60;93.74;99808.00;5000806;28;20033;-73
2021/05/06 04:17:06;;;;;;;7.68;1.92;;;;;;;5.82;92.32;99812.78;4996166;28;20046;-74
2021/05/06 04:22:26;;;;;;;8.85;1.73;;;;;;;5.89;92.50;99813.75;5022718;28;20053;-73
2021/05/06 04:27:52;;;;;;;10.48;1.95;;;;;;;5.74;93.16;99817.16;5010949;28;20030;-73
2021/05/06 04:35:43;;;;;;;9.48;2.20;;;;;;;5.90;92.59;99809.19;5006589;28;20498;-73
2021/05/06 04:38:15;;;;;;;10.27;2.15;;;;;;;5.90;92.59;99807.31;5009721;28;20478;-73
2021/05/06 04:53:54;;;;;;;11.73;2.13;;;;;;;6.15;90.72;99818.59;4996312;28;20034;-73
2021/05/06 05:12:01;;;;;;;8.73;1.80;;;;;;;6.50;89.79;99810.63;4996885;28;20467;-73
2021/05/06 05:14:35;;;;;;;13.65;2.13;;;;;;;6.62;90.34;99819.28;4992800;28;20027;-73
2021/05/06 05:25:15;;;;;;;8.23;1.83;;;;;;;8.16;83.22;99823.44;5000638;28;20030;-74
2021/05/06 05:27:40;;;;;;;6.60;1.95;;;;;;;8.47;81.15;99815.13;4998082;28;20034;-73
2021/05/06 05:30:07;;;;;;;8.82;1.55;;;;;;;8.58;80.64;99816.06;5003897;28;20545;-73
2021/05/06 05:32:33;;;;;;;6.68;2.03;;;;;;;8.96;79.58;99820.44;5000429;28;20096;-73
2021/05/06 05:35:05;;;;;;;10.55;2.08;;;;;;;9.09;78.39;99822.53;5013770;28;20474;-73
2021/05/06 05:37:42;;;;;;;7.70;1.67;;;;;;;8.98;78.81;99818.16;5008891;28;20501;-73
2021/05/06 05:43:09;;;;;;;6.20;1.90;;;;;;;9.43;77.09;99822.50;5014719;28;20739;-73
2021/05/06 05:56:27;;;;;;;9.38;1.63;;;;;;;9.85;74.32;99823.72;4990179;28;20042;-73
2021/05/06 05:58:54;;;;;;;12.25;3.10;;;;;;;9.80;74.34;99831.34;5007667;28;20034;-74
2021/05/06 06:01:20;;;;;;;7.53;1.60;;;;;;;9.99;72.91;99833.84;5006536;28;20037;-73
2021/05/06 06:03:45;;;;;;;9.05;1.70;;;;;;;10.13;72.31;99828.63;5001165;28;20509;-73
2021/05/06 06:06:11;;;;;;;8.15;1.40;;;;;;;10.02;72.56;99833.13;5003907;28;20042;-74
2021/05/06 06:08:37;;;;;;;8.07;1.90;;;;;;;10.00;73.34;99835.41;5007140;28;20037;-73
2021/05/06 06:11:04;;;;;;;9.60;1.55;;;;;;;10.25;72.16;99836.41;5003218;28;20108;-73
2021/05/06 06:13:31;;;;;;;11.25;1.45;;;;;;;10.39;71.85;99843.81;5008418;28;20386;-74
2021/05/06 06:18:28;;;;;;;9.07;1.60;;;;;;;10.50;71.71;99834.69;5004880;28;20073;-74
2021/05/06 06:21:00;;;;;;;9.32;1.98;;;;;;;10.50;72.53;99844.66;5006913;28;20037;-74
2021/05/06 06:23:27;;;;;;;5.78;1.38;;;;;;;10.54;70.06;99842.78;5007317;28;20049;-74
2021/05/06 06:25:54;;;;;;;7.50;2.00;;;;;;;10.63;71.33;99838.63;5009869;28;20049;-73
2021/05/06 06:28:19;;;;;;;13.52;1.88;;;;;;;10.57;71.59;99836.63;5012447;28;20394;-75
2021/05/06 06:30:44;;;;;;;9.10;1.70;;;;;;;10.57;71.27;99837.41;5011364;28;20034;-73
2021/05/06 06:33:10;;;;;;;8.55;1.73;;;;;;;10.68;70.47;99834.81;5008763;28;20044;-73
2021/05/06 06:35:35;;;;;;;7.22;1.63;;;;;;;10.65;70.08;99835.53;5012022;28;20048;-74
2021/05/06 06:38:01;;;;;;;4.55;1.42;;;;;;;10.80;69.99;99839.88;5005012;28;20026;-73
2021/05/06 06:40:27;;;;;;;6.97;1.80;;;;;;;10.87;69.87;99829.94;5013558;28;20033;-74
2021/05/06 06:42:52;;;;;;;7.78;1.42;;;;;;;10.98;68.89;99840.75;5002477;28;20042;-74
2021/05/06 06:45:20;;;;;;;7.60;1.70;;;;;;;11.02;68.93;99851.53;5011668;28;20037;-74
2021/05/06 06:47:51;;;;;;;5.47;1.98;;;;;;;11.20;69.30;99841.63;5006295;28;20042;-73
2021/05/06 06:50:16;;;;;;;8.38;1.65;;;;;;;11.36;68.29;99844.78;5011502;28;20123;-74
2021/05/06 06:52:42;;;;;;;4.97;1.65;;;;;;;11.35;67.15;99859.38;5007376;28;20065;-74
2021/05/06 06:55:08;;;;;;;7.88;2.05;;;;;;;11.35;67.56;99854.78;5007794;28;20034;-75
2021/05/06 06:57:34;;;;;;;11.90;2.53;;;;;;;11.22;66.97;99850.09;5007481;28;20034;-75
2021/05/06 06:59:59;;;;;;;11.45;2.13;;;;;;;11.42;67.78;99845.97;5009439;28;20025;-74
2021/05/06 07:02:25;;;;;;;8.38;1.80;;;;;;;11.11;68.04;99863.50;5008434;28;20065;-75
2021/05/06 07:04:51;;;;;;;8.45;2.05;;;;;;;11.08;68.37;99858.09;5008710;28;20032;-74
2021/05/06 07:07:18;;;;;;;11.80;2.28;;;;;;;11.01;68.18;99850.78;5002920;28;20029;-74
2021/05/06 07:09:43;;;;;;;9.80;2.00;;;;;;;10.82;70.58;99851.81;5002984;28;20041;-75
2021/05/06 07:12:09;;;;;;;4.72;1.70;;;;;;;11.08;69.00;99847.34;4997115;28;20034;-74
2021/05/06 07:14:37;;;;;;;7.40;1.88;;;;;;;11.24;68.44;99853.19;5039332;22;20046;-79
2021/05/06 07:17:03;;;;;;;11.65;2.30;;;;;;;11.34;66.72;99849.78;5032895;28;20060;-79
2021/05/06 07:19:28;;;;;;;10.93;2.08;;;;;;;10.80;66.22;99870.25;5030528;28;20625;-79
2021/05/06 07:21:54;;;;;;;5.63;1.48;;;;;;;10.68;67.73;99865.19;5026216;28;20091;-78
2021/05/06 07:24:19;;;;;;;5.68;1.70;;;;;;;10.65;69.23;99860.56;5022810;28;20035;-77
2021/05/06 07:26:44;;;;;;;7.38;1.88;;;;;;;10.81;68.68;99852.19;5022787;28;20068;-79
2021/05/06 07:29:14;;;;;;;7.40;1.83;;;;;;;11.02;68.64;99868.47;5022827;28;20439;-77
2021/05/06 07:31:39;;;;;;;6.05;1.88;;;;;;;11.34;67.26;99864.00;5026715;28;20059;-79
2021/05/06 07:34:05;;;;;;;8.48;2.03;;;;;;;11.35;66.50;99870.94;5032522;28;20041;-80
2021/05/06 07:36:30;;;;;;;6.55;2.10;;;;;;;11.40;65.05;99864.44;5008854;28;20514;-80
2021/05/06 07:38:56;;;;;;;7.05;1.70;;;;;;;11.69;66.51;99864.16;5022581;28;20040;-78
2021/05/06 07:41:22;;;;;;;8.38;1.67;;;;;;;11.79;63.55;99873.44;5031948;28;20029;-81
2021/05/06 07:43:47;;;;;;;6.68;1.48;;;;;;;11.83;63.55;99862.69;5022519;28;20037;-78
2021/05/06 07:46:13;;;;;;;7.80;1.90;;;;;;;11.97;62.24;99865.38;5021677;28;20117;-80
2021/05/06 07:48:39;;;;;;;6.57;1.48;;;;;;;12.36;61.40;99872.38;5022301;28;20037;-80
2021/05/06 07:51:05;;;;;;;6.00;1.50;;;;;;;12.50;61.17;99869.66;5029220;28;20053;-79
2021/05/06 07:53:48;;;;;;;5.18;1.70;;;;;;;12.86;61.58;99858.81;5029265;28;20064;-79
2021/05/06 07:56:14;;;;;;;5.50;1.40;;;;;;;13.17;59.80;99858.78;5030922;28;20480;-80
2021/05/06 07:58:40;;;;;;;8.00;1.50;;;;;;;13.49;57.94;99859.41;5025737;28;20041;-80
2021/05/06 08:01:06;;;;;;;16.13;2.28;;;;;;;13.64;57.52;99860.13;5030518;28;20475;-79
2021/05/06 08:03:31;;;;;;;4.80;1.25;;;;;;;13.71;56.19;99857.38;5029188;28;20026;-79
2021/05/06 08:05:57;;;;;;;4.70;1.30;;;;;;;13.77;53.87;99858.50;5030797;28;20351;-78
2021/05/06 08:08:26;;;;;;;8.40;1.50;;;;;;;13.57;54.38;99857.44;5032476;28;20041;-79
2021/05/06 08:10:56;;;;;;;8.35;2.50;;;;;;;13.61;54.54;99855.47;5021312;28;20528;-78
2021/05/06 08:13:23;;;;;;;6.88;1.75;;;;;;;13.32;55.25;99870.28;5023090;28;20510;-79
2021/05/06 08:15:51;;;;;;;9.38;1.77;;;;;;;12.82;54.36;99864.22;5024307;28;20071;-78
2021/05/06 08:18:16;;;;;;;6.10;1.63;;;;;;;12.60;55.69;99863.47;5017624;28;20037;-77
2021/05/06 08:20:42;;;;;;;6.22;1.25;;;;;;;12.80;56.37;99865.75;5023079;28;20043;-77
2021/05/06 08:23:10;;;;;;;10.02;1.40;;;;;;;12.72;54.44;99865.00;5021607;28;20600;-78
2021/05/06 08:25:36;;;;;;;5.13;1.10;;;;;;;12.69;53.94;99869.28;5029166;28;20029;-78
2021/05/06 08:28:03;;;;;;;8.45;1.67;;;;;;;12.62;56.04;99858.47;5028131;28;20032;-78
2021/05/06 08:30:28;;;;;;;4.70;1.50;;;;;;;12.36;56.53;99875.06;5031244;28;20098;-79
2021/05/06 08:32:54;;;;;;;12.52;1.77;;;;;;;12.19;56.46;99877.75;5022063;28;20053;-76
2021/05/06 08:35:20;;;;;;;8.20;1.40;;;;;;;11.90;57.98;99874.25;5023946;28;20025;-78
2021/05/06 08:37:45;;;;;;;7.15;1.52;;;;;;;11.94;58.65;99891.22;5022630;28;21315;-78
2021/05/06 08:40:11;;;;;;;5.55;1.20;;;;;;;12.09;58.61;99879.28;5028665;28;20030;-78
2021/05/06 08:42:39;;;;;;;8.02;1.27;;;;;;;12.75;58.98;99883.16;5032135;28;20037;-77
2021/05/06 08:45:05;;;;;;;10.82;1.80;;;;;;;13.32;55.08;99887.28;5035867;28;20025;-77
2021/05/06 08:47:32;;;;;;;5.72;1.27;;;;;;;13.37;52.94;99888.84;5031578;28;20121;-75
2021/05/06 08:49:58;;;;;;;5.38;1.73;;;;;;;13.25;54.19;99897.38;5038427;28;20034;-78
2021/05/06 08:52:24;;;;;;;7.07;1.45;;;;;;;12.90;55.11;99905.53;5026884;28;20045;-78
2021/05/06 08:54:53;;;;;;;5.93;1.33;;;;;;;12.64;56.20;99904.00;5024118;28;20037;-78
2021/05/06 08:57:23;;;;;;;8.57;1.67;;;;;;;12.30;57.70;99908.22;5031079;28;20037;-78
2021/05/06 09:00:10;;;;;;;6.97;1.17;;;;;;;12.29;57.87;99901.31;5022437;28;20099;-76
2021/05/06 09:02:36;;;;;;;8.80;1.55;;;;;;;12.89;57.90;99902.03;4960787;28;20061;-79
2021/05/06 09:05:08;;;;;;;8.05;1.48;;;;;;;13.40;56.10;99910.44;4951510;28;20550;-76
2021/05/06 09:07:41;;;;;;;5.50;1.17;;;;;;;13.95;53.91;99913.31;4969428;28;20538;-79
2021/05/06 09:10:07;;;;;;;4.93;1.25;;;;;;;14.23;52.45;99913.13;4970225;28;20038;-78
2021/05/06 09:12:36;;;;;;;5.38;1.55;;;;;;;14.63;52.86;99906.28;4967401;28;20039;-79
2021/05/06 09:15:18;;;;;;;3.70;1.20;;;;;;;15.11;51.42;99898.88;4949538;28;20033;-77
2021/05/06 09:17:44;;;;;;;6.63;1.17;;;;;;;15.41;51.98;99906.28;4961393;28;20177;-78
2021/05/06 09:20:24;;;;;;;7.55;1.33;;;;;;;15.32;49.77;99906.78;4963411;28;20125;-78
2021/05/06 09:22:52;;;;;;;4.57;1.23;;;;;;;15.49;48.77;99915.91;4964689;28;20070;-78
2021/05/06 09:25:38;;;;;;;6.95;1.35;;;;;;;15.46;47.87;99902.38;4961593;28;20061;-78
2021/05/06 09:28:09;;;;;;;9.45;1.40;;;;;;;15.24;48.97;99909.94;4960598;28;20110;-78
2021/05/06 09:30:45;;;;;;;6.07;1.13;;;;;;;14.86;49.24;99908.41;4958052;28;20042;-78
2021/05/06 09:33:11;;;;;;;5.57;1.33;;;;;;;14.75;50.17;99913.91;4950421;28;20047;-79
2021/05/06 09:35:45;;;;;;;5.35;0.93;;;;;;;15.16;49.99;99908.47;4940108;28;20392;-77
2021/05/06 09:38:32;;;;;;;6.07;1.35;;;;;;;15.63;47.75;99910.31;4968899;28;20049;-78
2021/05/06 09:41:01;;;;;;;5.32;1.15;;;;;;;16.04;47.02;99908.22;5020466;28;20041;-79
2021/05/06 09:43:29;;;;;;;9.43;1.02;;;;;;;16.23;47.65;99899.41;5021170;28;20091;-79
2021/05/06 09:45:56;;;;;;;4.75;1.10;;;;;;;16.39;45.95;99906.91;5025407;28;20083;-77
2021/05/06 09:48:23;;;;;;;5.40;1.63;;;;;;;16.19;45.38;99909.53;5029972;28;20029;-78
2021/05/06 09:51:01;;;;;;;6.20;1.35;;;;;;;15.82;46.20;99898.03;5032042;28;20398;-79
2021/05/06 09:53:31;;;;;;;9.98;1.30;;;;;;;15.91;45.73;99901.78;5025923;28;20079;-79
2021/05/06 09:56:01;;;;;;;4.22;1.20;;;;;;;16.11;44.84;99899.19;5013984;28;20090;-78
2021/05/06 09:58:31;;;;;;;5.68;1.20;;;;;;;16.41;44.47;99890.97;5018599;28;20042;-77
2021/05/06 10:00:58;;;;;;;3.88;1.10;;;;;;;16.26;44.50;99898.56;5000892;28;20048;-79
2021/05/06 10:03:32;;;;;;;4.20;0.90;;;;;;;16.10;44.38;99895.69;5012872;28;20029;-77
2021/05/06 10:06:10;;;;;;;7.70;1.00;;;;;;;15.82;45.11;99909.66;5008055;28;21006;-79
2021/05/06 10:08:38;;;;;;;5.18;1.23;;;;;;;15.16;46.14;99903.84;5022242;28;20026;-78
2021/05/06 10:11:21;;;;;;;5.28;1.10;;;;;;;14.99;47.08;99901.31;5016470;28;20436;-76
2021/05/06 10:13:48;;;;;;;5.53;1.30;;;;;;;14.62;48.10;99907.44;5016348;28;20041;-79
2021/05/06 10:16:15;;;;;;;6.45;1.33;;;;;;;15.25;46.76;99906.84;5017778;28;20089;-78
2021/05/06 10:18:43;;;;;;;4.82;1.20;;;;;;;15.61;46.53;99898.31;5017014;28;20042;-80
2021/05/06 10:21:11;;;;;;;6.82;1.17;;;;;;;15.82;46.95;99903.47;5015336;28;20025;-78
2021/05/06 10:23:37;;;;;;;4.18;1.20;;;;;;;16.45;46.02;99894.41;5026314;28;20117;-78
2021/05/06 10:26:04;;;;;;;7.25;1.13;;;;;;;16.71;43.99;99901.75;5025976;28;20485;-79
2021/05/06 10:28:32;;;;;;;4.47;1.20;;;;;;;17.15;43.24;99895.13;5027306;28;20053;-78
2021/05/06 10:31:00;;;;;;;3.03;0.80;;;;;;;17.22;42.09;99908.63;5015771;28;20490;-78
2021/05/06 10:33:28;;;;;;;4.35;0.90;;;;;;;16.71;42.21;99896.31;5022953;28;20457;-78
2021/05/06 10:35:57;;;;;;;8.13;1.17;;;;;;;16.60;43.30;99914.00;5019532;28;20391;-78
2021/05/06 10:38:22;;;;;;;4.38;1.10;;;;;;;15.72;47.88;99943.16;5019583;28;20037;-79
2021/05/06 10:40:50;;;;;;;9.40;1.10;;;;;;;14.82;51.28;99946.41;5018788;28;20115;-77
2021/05/06 10:43:28;;;;;;;5.35;1.27;;;;;;;14.21;57.28;99972.34;5022966;28;20111;-78
2021/05/06 10:46:04;;;;;;;5.22;1.00;;;;;;;13.38;62.27;99972.28;5014530;28;20065;-77
2021/05/06 10:48:57;;;;;;;4.80;0.93;;;;;;;12.87;66.68;99974.66;5017251;28;20511;-77
2021/05/06 10:51:27;;;;;;;1.58;0.80;;;;;;;12.44;68.55;99968.44;5019299;28;20529;-78
2021/05/06 10:53:53;;;;;;;1.38;1.00;;;;;;;12.56;75.09;99973.44;5018709;28;20044;-77
2021/05/06 10:56:18;;;;;;;2.25;0.98;;;;;;;13.29;72.98;99963.03;5015865;28;20026;-77
2021/05/06 10:58:44;;;;;;;4.80;0.90;;;;;;;13.82;72.43;99969.03;5014404;28;20045;-78
2021/05/06 11:01:12;;;;;;;3.63;1.52;;;;;;;14.17;66.16;99958.03;5021347;28;20068;-78
2021/05/06 11:03:38;;;;;;;1.75;0.95;;;;;;;14.50;68.10;99959.41;5017203;28;20029;-78
2021/05/06 11:06:05;;;;;;;5.80;0.95;;;;;;;15.02;57.94;99957.47;5020650;28;20025;-77
2021/05/06 11:08:32;;;;;;;3.67;1.00;;;;;;;15.42;59.00;99962.13;5014053;28;20068;-77
2021/05/06 11:11:00;;;;;;;2.13;0.80;;;;;;;15.90;57.32;99954.56;5015871;28;20030;-78
2021/05/06 11:13:26;;;;;;;3.05;1.00;;;;;;;16.25;55.21;99945.94;5016101;28;20652;-78
2021/05/06 11:16:12;;;;;;;4.90;0.75;;;;;;;16.66;51.67;99940.31;5017760;28;20029;-79
2021/05/06 11:18:40;;;;;;;3.67;0.63;;;;;;;16.82;51.92;99931.50;5013238;28;20132;-78
2021/05/06 11:21:05;;;;;;;3.22;0.70;;;;;;;16.92;46.99;99933.25;5013858;28;20492;-77
2021/05/06 11:23:34;;;;;;;3.88;0.80;;;;;;;17.11;47.88;99933.31;5026556;28;20087;-78
2021/05/06 11:26:10;;;;;;;5.57;0.75;;;;;;;17.49;45.04;99935.75;5027423;28;20560;-78
2021/05/06 11:28:36;;;;;;;2.05;0.70;;;;;;;17.36;45.85;99941.03;5019461;28;20056;-77
2021/05/06 11:31:02;;;;;;;2.92;0.90;;;;;;;17.71;47.07;99943.06;5028057;28;20056;-77
2021/05/06 11:33:28;;;;;;;7.35;0.98;;;;;;;17.33;46.20;99952.72;5027634;28;20827;-78
2021/05/06 11:36:08;;;;;;;4.78;0.82;;;;;;;17.47;45.15;99938.84;5021808;28;20520;-78
2021/05/06 11:38:39;;;;;;;5.95;0.85;;;;;;;17.53;42.39;99939.16;5012878;28;20074;-78
2021/05/06 11:41:25;;;;;;;11.07;1.20;;;;;;;17.19;43.97;99952.25;5016803;28;20800;-77
2021/05/06 11:43:57;;;;;;;4.72;1.05;;;;;;;16.73;44.66;99942.91;5017390;28;20036;-78
2021/05/06 11:46:35;;;;;;;6.18;1.52;;;;;;;16.18;45.47;99954.19;5014202;28;20064;-77
2021/05/06 11:49:04;;;;;;;2.53;1.50;;;;;;;15.52;48.01;99980.25;5017983;28;20541;-78
2021/05/06 11:51:37;;;;;;;2.30;0.80;;;;;;;14.80;52.19;99983.97;5023246;28;20038;-79
2021/05/06 11:54:18;;;;;;;3.13;0.80;;;;;;;14.28;55.16;99977.75;5018375;28;20037;-79
2021/05/06 11:56:50;;;;;;;;;;;;;;;13.66;60.16;99970.66;5028158;28;20036;-79
2021/05/06 11:59:22;;;;;;;1.70;0.80;;;;;;;13.44;63.59;99970.72;5018121;28;19921;-78
2021/05/06 12:01:49;;;;;;;1.63;0.75;;;;;;;13.25;63.35;99970.38;5018854;28;20677;-78
2021/05/06 12:04:41;;;;;;;1.73;0.73;;;;;;;13.21;62.67;99967.69;5031756;28;20028;-79
2021/05/06 12:07:20;;;;;;;2.58;1.17;;;;;;;12.56;61.92;99972.69;5013388;28;20059;-79
2021/05/06 12:09:46;;;;;;;1.83;0.90;;;;;;;12.79;60.83;99969.63;5019041;28;20033;-79
2021/05/06 12:12:22;;;;;;;2.03;0.80;;;;;;;12.74;61.66;99959.94;5027058;28;20029;-76
2021/05/06 12:14:47;;;;;;;3.60;0.93;;;;;;;13.02;59.15;99953.78;5021087;28;20029;-79
2021/05/06 12:17:21;;;;;;;2.17;0.70;;;;;;;13.33;57.12;99950.28;5017206;28;20036;-79
2021/05/06 12:19:48;;;;;;;4.55;0.80;;;;;;;13.83;57.57;99946.25;5020459;28;20068;-78
2021/05/06 12:22:15;;;;;;;2.30;0.70;;;;;;;13.61;54.00;99933.94;5018242;28;20399;-78
2021/05/06 12:24:43;;;;;;;1.10;0.65;;;;;;;13.99;52.14;99927.59;5031003;28;20038;-77
2021/05/06 12:27:26;;;;;;;2.65;0.70;;;;;;;14.59;50.71;99923.75;5014674;28;20418;-79
2021/05/06 12:30:13;;;;;;;1.30;0.60;;;;;;;14.89;48.50;99937.41;5014394;28;20391;-78
2021/05/06 12:32:44;;;;;;;2.95;0.88;;;;;;;15.07;48.10;99929.91;5018228;28;20036;-78
2021/05/06 12:35:10;;;;;;;3.80;0.80;;;;;;;15.18;49.64;99933.25;5021319;28;20510;-79
2021/05/06 12:37:41;;;;;;;2.38;0.77;;;;;;;14.88;47.77;99939.38;5019129;28;20033;-78
2021/05/06 12:40:12;;;;;;;3.72;0.90;;;;;;;14.73;50.08;99931.75;5011896;28;20029;-78
2021/05/06 12:42:38;;;;;;;8.48;1.08;;;;;;;14.71;49.83;99947.66;5026656;28;20514;-79
2021/05/06 12:45:27;;;;;;;6.47;1.33;;;;;;;14.20;54.24;99978.16;5018199;28;20029;-78
2021/05/06 12:47:53;;;;;;;3.30;1.23;;;;;;;13.34;65.90;99992.38;5013569;28;20038;-78
2021/05/06 12:50:30;;;;;;;5.57;1.33;;;;;;;12.63;71.87;100018.63;5026845;28;20034;-78
2021/05/06 12:53:02;;;;;;;4.15;1.65;;;;;;;12.14;76.27;100030.06;5022875;28;20789;-78
2021/05/06 12:55:31;;;;;;;4.97;1.13;;;;;;;11.86;76.86;100018.38;5022550;28;20034;-79
2021/05/06 12:58:16;;;;;;;3.45;1.38;;;;;;;10.68;76.11;99989.03;5013819;28;20053;-79
2021/05/06 13:00:44;;;;;;;4.95;1.48;;;;;;;10.35;82.48;99974.91;5013675;28;20041;-78
2021/05/06 13:03:14;;;;;;;3.00;1.20;;;;;;;10.48;80.99;99966.19;5018066;28;20053;-79
2021/05/06 13:05:46;;;;;;;7.00;1.38;;;;;;;10.87;82.64;99956.53;5022738;28;20047;-78
2021/05/06 13:08:12;;;;;;;7.18;1.40;;;;;;;11.58;83.41;99949.63;5014579;28;20034;-78
2021/05/06 13:10:39;;;;;;;2.42;1.15;;;;;;;11.45;79.59;99944.94;5019781;28;20044;-79
2021/05/06 13:13:07;;;;;;;3.55;1.27;;;;;;;11.59;77.49;99950.41;5021178;28;20132;-78
2021/05/06 13:15:50;;;;;;;3.70;1.33;;;;;;;12.14;79.84;99937.50;5022614;28;20117;-77
2021/05/06 13:18:16;;;;;;;1.52;0.90;;;;;;;12.23;68.13;99933.28;5046396;22;20124;-76
2021/05/06 13:20:43;;;;;;;4.45;1.30;;;;;;;12.41;76.33;99936.00;5020904;28;20032;-76
2021/05/06 13:23:11;;;;;;;3.15;1.13;;;;;;;12.63;80.68;99929.47;5012339;28;20585;-75
2021/05/06 13:25:49;;;;;;;1.73;1.00;;;;;;;12.88;73.49;99921.34;5028428;28;20389;-75
2021/05/06 13:28:15;;;;;;;6.45;1.35;;;;;;;13.28;73.94;99915.50;5019655;28;20061;-75
2021/05/06 13:30:42;;;;;;;5.28;1.20;;;;;;;13.74;74.20;99913.44;5007974;28;20055;-74
2021/05/06 13:33:17;;;;;;;4.47;1.20;;;;;;;14.03;72.24;99916.75;5005261;28;20030;-75
2021/05/06 13:36:00;;;;;;;4.28;0.90;;;;;;;13.72;63.60;99910.34;5008490;28;20037;-76
2021/05/06 13:38:25;;;;;;;2.22;0.80;;;;;;;13.63;63.58;99907.28;4998225;28;20033;-71
2021/05/06 13:40:51;;;;;;;7.93;1.05;;;;;;;13.77;62.15;99906.44;5008251;28;20040;-75
2021/05/06 13:43:16;;;;;;;2.83;1.05;;;;;;;14.18;62.84;99894.59;5009513;28;20386;-75
2021/05/06 13:45:42;;;;;;;4.88;1.08;;;;;;;14.35;60.81;99895.66;5010083;28;20481;-76
2021/05/06 13:48:07;;;;;;;2.22;0.77;;;;;;;14.58;59.50;99895.88;5003078;28;20795;-75
2021/05/06 13:50:33;;;;;;;2.05;0.60;;;;;;;14.89;51.62;99888.63;5007223;28;20026;-74
2021/05/06 13:52:58;;;;;;;2.65;0.70;;;;;;;14.77;49.39;99883.72;5003825;28;20036;-75
2021/05/06 13:55:24;;;;;;;1.88;0.63;;;;;;;14.87;48.59;99883.59;4994660;28;20073;-72
2021/05/06 13:57:49;;;;;;;2.85;0.90;;;;;;;14.79;48.94;99878.66;4998286;28;20029;-75
2021/05/06 14:00:15;;;;;;;2.85;0.88;;;;;;;14.76;48.27;99874.03;4994853;28;20510;-74
2021/05/06 14:02:40;;;;;;;2.95;0.82;;;;;;;14.63;48.94;99881.13;5006040;28;20021;-74
2021/05/06 14:05:06;;;;;;;2.58;0.88;;;;;;;14.73;48.29;99877.56;5002370;28;20544;-74
2021/05/06 14:07:32;;;;;;;5.55;1.15;;;;;;;14.57;48.58;99877.31;5006596;28;20045;-75
2021/05/06 14:10:00;;;;;;;3.10;0.90;;;;;;;14.37;48.42;99888.69;4993345;28;20036;-75
2021/05/06 14:12:26;;;;;;;3.13;0.80;;;;;;;14.29;47.96;99886.41;5008179;28;20022;-75
2021/05/06 14:14:52;;;;;;;4.68;1.27;;;;;;;14.20;48.42;99876.03;5009340;28;20134;-75
2021/05/06 14:17:17;;;;;;;10.30;1.13;;;;;;;14.20;49.47;99894.97;5002973;28;20391;-76
2021/05/06 14:19:43;;;;;;;3.00;1.08;;;;;;;13.84;51.02;99896.34;5003605;28;20045;-76
2021/05/06 14:22:09;;;;;;;1.75;1.02;;;;;;;13.68;52.35;99892.56;5009487;28;20025;-75
2021/05/06 14:24:42;;;;;;;3.60;1.05;;;;;;;13.37;53.88;99910.47;4992378;28;20488;-76
2021/05/06 14:27:08;;;;;;;3.63;1.00;;;;;;;13.23;54.96;99915.91;5007907;28;20068;-74
2021/05/06 14:29:33;;;;;;;7.85;1.48;;;;;;;13.07;55.62;99905.53;5002064;28;20172;-74
2021/05/06 14:31:59;;;;;;;1.80;0.82;;;;;;;12.90;55.98;99916.31;5002894;28;20408;-76
2021/05/06 14:34:24;;;;;;;2.92;0.90;;;;;;;12.80;57.06;99911.69;5003303;28;20049;-74
2021/05/06 14:36:50;;;;;;;2.47;0.90;;;;;;;12.62;56.64;99925.22;5007577;28;20026;-74
2021/05/06 14:39:15;;;;;;;2.50;0.93;;;;;;;12.47;57.42;99932.56;5002844;28;20041;-75
2021/05/06 14:41:42;;;;;;;8.93;1.00;;;;;;;12.39;59.85;99922.13;5008760;28;20037;-73
2021/05/06 14:44:09;;;;;;;2.47;0.70;;;;;;;11.88;61.41;99908.94;5007941;28;20064;-74
2021/05/06 14:46:34;;;;;;;2.15;0.82;;;;;;;12.12;63.90;99902.03;5007210;28;20458;-74
2021/05/06 14:48:59;;;;;;;1.33;0.70;;;;;;;12.40;61.74;99892.06;5010223;28;20104;-75
2021/05/06 14:51:26;;;;;;;3.55;0.75;;;;;;;12.63;60.87;99883.56;5000502;28;20042;-71
2021/05/06 14:53:51;;;;;;;2.95;0.90;;;;;;;12.85;54.02;99889.72;5000430;28;20069;-75
2021/05/06 14:56:17;;;;;;;1.60;0.60;;;;;;;12.93;54.01;99883.13;5003013;28;20140;-73
2021/05/06 14:58:42;;;;;;;1.17;0.80;;;;;;;13.21;55.37;99883.09;5018635;28;20545;-76
2021/05/06 15:01:08;;;;;;;2.33;0.93;;;;;;;13.56;52.54;99885.66;5002758;28;20057;-72
2021/05/06 15:03:33;;;;;;;3.13;0.70;;;;;;;13.82;51.48;99887.84;4996652;28;20043;-74